Time;durP1;ratioP1;P1;durP2;ratioP2;P2;SDS_P1;SDS_P2;PMS_P1;PMS_P2;Temp;Humidity;BMP_temperature;BMP_pressure;BME280_temperature;BME280_humidity;BME280_pressure;Samples;Min_cycle;Max_cycle;Signal;HPM_P1;HPM_P2
2022/07/16 00:01:53;;;;;;;4.00;3.40;;;;;;;;;;5039291;28;20210;-66
2022/07/16 00:04:21;;;;;;;4.13;3.33;;;;;;;;;;5039561;28;20198;-67
2022/07/16 00:06:48;;;;;;;3.63;3.30;;;;;;;;;;5041736;28;20284;-67
2022/07/16 00:09:16;;;;;;;6.50;3.33;;;;;;;;;;5025220;28;20206;-67
2022/07/16 00:11:43;;;;;;;3.73;3.27;;;;;;;;;;5025139;28;20304;-67
2022/07/16 00:14:11;;;;;;;4.50;3.20;;;;;;;;;;5023811;28;20298;-67
2022/07/16 00:16:38;;;;;;;4.03;2.90;;;;;;;;;;5023226;28;20226;-67
2022/07/16 00:19:21;;;;;;;3.03;2.83;;;;;;;;;;5025620;28;20207;-68
2022/07/16 00:21:50;;;;;;;4.93;3.00;;;;;;;;;;5024949;28;20660;-65
2022/07/16 00:24:17;;;;;;;3.73;3.17;;;;;;;;;;5027583;28;20202;-68
2022/07/16 00:26:46;;;;;;;4.70;3.23;;;;;;;;;;5025791;28;20426;-67
2022/07/16 00:29:13;;;;;;;4.90;3.30;;;;;;;;;;5026318;28;20596;-69
2022/07/16 00:31:41;;;;;;;4.37;3.37;;;;;;;;;;5019762;28;20295;-67
2022/07/16 00:34:08;;;;;;;3.77;3.43;;;;;;;;;;5026438;28;20671;-67
2022/07/16 00:36:36;;;;;;;5.37;3.90;;;;;;;;;;5026838;28;20253;-67
2022/07/16 00:39:05;;;;;;;4.40;3.67;;;;;;;;;;5019439;28;20685;-68
2022/07/16 00:41:33;;;;;;;3.70;3.40;;;;;;;;;;5027504;28;20259;-67
2022/07/16 00:44:05;;;;;;;4.00;3.30;;;;;;;;;;5029037;28;20209;-67
2022/07/16 00:46:33;;;;;;;4.53;3.33;;;;;;;;;;5019609;28;20242;-68
2022/07/16 00:49:01;;;;;;;4.23;3.60;;;;;;;;;;5022074;28;20209;-66
2022/07/16 00:51:28;;;;;;;6.40;4.90;;;;;;;;;;5031843;28;20226;-68
2022/07/16 00:53:56;;;;;;;6.40;4.60;;;;;;;;;;5040839;28;20199;-67
2022/07/16 00:56:23;;;;;;;5.37;4.53;;;;;;;;;;5026130;28;20709;-68
2022/07/16 00:58:52;;;;;;;4.40;3.77;;;;;;;;;;5026843;28;20244;-68
2022/07/16 01:01:19;;;;;;;3.90;3.60;;;;;;;;;;5023465;28;20206;-68
2022/07/16 01:03:47;;;;;;;4.87;3.40;;;;;;;;;;5019834;28;20214;-68
2022/07/16 01:06:16;;;;;;;4.07;3.57;;;;;;;;;;5023780;28;20234;-67
2022/07/16 01:08:45;;;;;;;3.60;3.30;;;;;;;;;;5035639;28;20226;-69
2022/07/16 01:11:14;;;;;;;3.50;3.20;;;;;;;;;;5021980;28;20226;-68
2022/07/16 01:13:42;;;;;;;3.63;3.30;;;;;;;;;;5028157;28;20794;-69
2022/07/16 01:16:10;;;;;;;5.13;3.40;;;;;;;;;;5022613;28;20221;-68
2022/07/16 01:18:38;;;;;;;5.43;3.30;;;;;;;;;;5025342;28;20208;-69
2022/07/16 01:21:05;;;;;;;3.70;3.40;;;;;;;;;;5017428;28;20206;-68
2022/07/16 01:23:33;;;;;;;4.93;3.60;;;;;;;;;;5016415;28;21088;-67
2022/07/16 01:26:00;;;;;;;3.83;3.40;;;;;;;;;;5049594;28;20230;-67
2022/07/16 01:28:28;;;;;;;4.13;3.57;;;;;;;;;;5042835;28;20663;-67
2022/07/16 01:30:55;;;;;;;4.27;3.60;;;;;;;;;;5020216;28;20322;-68
2022/07/16 01:33:23;;;;;;;4.17;3.77;;;;;;;;;;5024363;28;20201;-66
2022/07/16 01:35:51;;;;;;;5.23;4.03;;;;;;;;;;5024604;28;20248;-66
2022/07/16 01:38:19;;;;;;;4.97;4.10;;;;;;;;;;5025095;28;20201;-65
2022/07/16 01:40:46;;;;;;;5.63;3.67;;;;;;;;;;5037620;28;20198;-67
2022/07/16 01:43:19;;;;;;;4.07;3.63;;;;;;;;;;5023199;28;20202;-68
2022/07/16 01:45:46;;;;;;;5.67;3.67;;;;;;;;;;5027033;28;20257;-68
2022/07/16 01:48:14;;;;;;;4.47;3.57;;;;;;;;;;5026144;28;20309;-68
2022/07/16 01:50:42;;;;;;;4.27;3.67;;;;;;;;;;5028125;28;20873;-67
2022/07/16 01:53:10;;;;;;;4.33;3.70;;;;;;;;;;5024898;28;20737;-68
2022/07/16 01:55:38;;;;;;;4.57;3.60;;;;;;;;;;5028667;28;20283;-67
2022/07/16 01:58:07;;;;;;;6.23;4.10;;;;;;;;;;5025411;28;20213;-69
2022/07/16 02:00:35;;;;;;;6.20;4.37;;;;;;;;;;5029129;28;20210;-68
2022/07/16 02:03:03;;;;;;;4.00;3.63;;;;;;;;;;5023295;28;20206;-69
2022/07/16 02:05:31;;;;;;;3.87;3.57;;;;;;;;;;5029221;28;20759;-68
2022/07/16 02:07:58;;;;;;;4.37;3.97;;;;;;;;;;5033802;28;20585;-68
2022/07/16 02:10:26;;;;;;;4.70;4.27;;;;;;;;;;5034958;28;20206;-67
2022/07/16 02:12:53;;;;;;;8.13;5.83;;;;;;;;;;5033632;28;20229;-68
2022/07/16 02:15:20;;;;;;;9.00;7.07;;;;;;;;;;5030478;28;20225;-68
2022/07/16 02:17:48;;;;;;;5.93;5.03;;;;;;;;;;5026472;28;20554;-68
2022/07/16 02:20:16;;;;;;;6.00;4.97;;;;;;;;;;5030714;28;20233;-68
2022/07/16 02:22:43;;;;;;;6.93;4.63;;;;;;;;;;5035016;28;20249;-67
2022/07/16 02:25:10;;;;;;;5.57;4.57;;;;;;;;;;5024577;28;20210;-69
2022/07/16 02:28:05;;;;;;;4.10;3.70;;;;;;;;;;5029599;28;20221;-67
2022/07/16 02:30:26;;;;;;;4.40;4.00;;;;;;;;;;5039305;28;20217;-68
2022/07/16 02:32:54;;;;;;;5.30;4.17;;;;;;;;;;5039507;28;20272;-67
2022/07/16 02:35:21;;;;;;;8.03;4.77;;;;;;;;;;5027077;28;20253;-68
2022/07/16 02:37:49;;;;;;;5.40;4.23;;;;;;;;;;5026964;28;20203;-67
2022/07/16 02:40:16;;;;;;;6.00;4.80;;;;;;;;;;5038595;28;20194;-68
2022/07/16 02:42:43;;;;;;;6.93;4.33;;;;;;;;;;5025591;28;20789;-68
2022/07/16 02:45:11;;;;;;;5.40;4.30;;;;;;;;;;5022550;28;20209;-68
2022/07/16 02:47:38;;;;;;;6.53;4.93;;;;;;;;;;5039689;28;20210;-68
2022/07/16 02:50:08;;;;;;;6.83;4.67;;;;;;;;;;5028758;28;20214;-66
2022/07/16 02:52:35;;;;;;;5.30;4.80;;;;;;;;;;5019993;28;20222;-69
2022/07/16 02:55:04;;;;;;;5.20;4.77;;;;;;;;;;5023295;28;20568;-67
2022/07/16 02:57:35;;;;;;;4.87;4.27;;;;;;;;;;5024495;28;20209;-68
2022/07/16 03:00:04;;;;;;;7.33;5.00;;;;;;;;;;5027091;28;20563;-67
2022/07/16 03:02:31;;;;;;;5.60;4.10;;;;;;;;;;5023222;28;20214;-66
2022/07/16 03:04:58;;;;;;;6.27;4.20;;;;;;;;;;5025981;28;20276;-68
2022/07/16 03:07:26;;;;;;;5.03;4.37;;;;;;;;;;5022812;28;20313;-69
2022/07/16 03:09:53;;;;;;;5.13;4.70;;;;;;;;;;5026447;28;21628;-68
2022/07/16 03:12:21;;;;;;;4.93;4.27;;;;;;;;;;5027824;28;20219;-68
2022/07/16 03:14:48;;;;;;;5.07;4.57;;;;;;;;;;5019682;28;20831;-68
2022/07/16 03:17:16;;;;;;;5.80;4.33;;;;;;;;;;5020050;28;20721;-68
2022/07/16 03:19:43;;;;;;;6.80;4.43;;;;;;;;;;5014682;28;20213;-68
2022/07/16 03:22:10;;;;;;;6.97;6.27;;;;;;;;;;5024215;28;20214;-68
2022/07/16 03:24:38;;;;;;;10.43;7.03;;;;;;;;;;5023119;28;20210;-68
2022/07/16 03:27:05;;;;;;;8.73;5.90;;;;;;;;;;5022061;28;20333;-68
2022/07/16 03:29:33;;;;;;;7.90;6.60;;;;;;;;;;5029739;28;20255;-68
2022/07/16 03:32:00;;;;;;;7.93;6.60;;;;;;;;;;5029370;28;20284;-69
2022/07/16 03:34:27;;;;;;;8.60;5.90;;;;;;;;;;5026234;28;20253;-67
2022/07/16 03:36:55;;;;;;;6.03;5.40;;;;;;;;;;5026176;28;20317;-67
2022/07/16 03:39:22;;;;;;;6.33;5.23;;;;;;;;;;5027724;28;20229;-67
2022/07/16 03:41:49;;;;;;;6.33;5.47;;;;;;;;;;5030079;28;20206;-67
2022/07/16 03:44:17;;;;;;;6.00;5.27;;;;;;;;;;5024855;28;20207;-68
2022/07/16 03:46:44;;;;;;;6.37;4.47;;;;;;;;;;5031103;28;20233;-67
2022/07/16 03:49:11;;;;;;;4.77;4.33;;;;;;;;;;5053369;28;20206;-67
2022/07/16 03:51:39;;;;;;;5.47;4.10;;;;;;;;;;5053252;28;20229;-68
2022/07/16 03:54:06;;;;;;;4.90;4.40;;;;;;;;;;5063843;28;20271;-69
2022/07/16 03:56:34;;;;;;;4.57;4.10;;;;;;;;;;5029480;28;20335;-67
2022/07/16 03:59:02;;;;;;;5.30;4.40;;;;;;;;;;5027888;28;20213;-67
2022/07/16 04:01:29;;;;;;;5.83;4.50;;;;;;;;;;5042661;28;20206;-67
2022/07/16 04:03:58;;;;;;;4.83;4.43;;;;;;;;;;5013106;28;20299;-67
2022/07/16 04:06:25;;;;;;;6.13;4.53;;;;;;;;;;5035476;28;20226;-67
2022/07/16 04:08:53;;;;;;;5.13;4.53;;;;;;;;;;5032263;28;20714;-67
2022/07/16 04:11:20;;;;;;;7.40;5.87;;;;;;;;;;5031199;28;20255;-67
2022/07/16 04:13:48;;;;;;;7.87;5.03;;;;;;;;;;5028241;28;20206;-67
2022/07/16 04:16:15;;;;;;;4.63;4.13;;;;;;;;;;5027019;28;20291;-68
2022/07/16 04:18:43;;;;;;;4.77;4.37;;;;;;;;;;5028007;28;20203;-67
2022/07/16 04:21:10;;;;;;;8.60;4.80;;;;;;;;;;5027331;28;20206;-68
2022/07/16 04:23:37;;;;;;;6.57;4.43;;;;;;;;;;5025596;28;20246;-67
2022/07/16 04:26:05;;;;;;;4.53;4.13;;;;;;;;;;5026195;28;20251;-65
2022/07/16 04:28:32;;;;;;;4.87;4.37;;;;;;;;;;5025892;28;20220;-67
2022/07/16 04:31:00;;;;;;;4.70;4.30;;;;;;;;;;5032200;28;20209;-67
2022/07/16 04:33:27;;;;;;;4.43;4.03;;;;;;;;;;5028281;28;20268;-67
2022/07/16 04:35:55;;;;;;;5.90;4.17;;;;;;;;;;5029061;28;20700;-68
2022/07/16 04:38:22;;;;;;;5.97;4.20;;;;;;;;;;5024948;28;20210;-67
2022/07/16 04:40:49;;;;;;;5.03;4.63;;;;;;;;;;5034103;28;20198;-67
2022/07/16 04:43:17;;;;;;;4.70;4.30;;;;;;;;;;5036281;28;20202;-66
2022/07/16 04:45:44;;;;;;;5.10;4.60;;;;;;;;;;5026172;28;20250;-67
2022/07/16 04:48:12;;;;;;;4.90;4.40;;;;;;;;;;5029326;28;20233;-67
2022/07/16 04:50:39;;;;;;;4.57;4.17;;;;;;;;;;5027196;28;20907;-67
2022/07/16 04:53:07;;;;;;;5.17;4.40;;;;;;;;;;5031951;28;20249;-68
2022/07/16 04:55:34;;;;;;;5.33;4.83;;;;;;;;;;5031290;28;20233;-67
2022/07/16 04:58:01;;;;;;;8.47;5.00;;;;;;;;;;5032382;28;21567;-67
2022/07/16 05:00:29;;;;;;;6.00;4.63;;;;;;;;;;5025820;28;20578;-67
2022/07/16 05:02:57;;;;;;;5.30;4.70;;;;;;;;;;5020903;28;20210;-67
2022/07/16 05:05:26;;;;;;;6.37;4.73;;;;;;;;;;5016176;28;20316;-67
2022/07/16 05:07:54;;;;;;;6.23;5.10;;;;;;;;;;5027572;28;20589;-67
2022/07/16 05:10:22;;;;;;;9.30;5.20;;;;;;;;;;5034750;28;20626;-66
2022/07/16 05:12:49;;;;;;;5.50;5.00;;;;;;;;;;5017737;28;20222;-65
2022/07/16 05:15:17;;;;;;;5.30;4.80;;;;;;;;;;5034221;28;20206;-66
2022/07/16 05:17:44;;;;;;;7.50;4.90;;;;;;;;;;5027141;28;20210;-67
2022/07/16 05:20:12;;;;;;;5.97;5.23;;;;;;;;;;5023929;28;20209;-65
2022/07/16 05:22:40;;;;;;;6.00;5.20;;;;;;;;;;5025684;28;20254;-67
2022/07/16 05:25:08;;;;;;;6.57;4.97;;;;;;;;;;5028840;28;20205;-68
2022/07/16 05:27:36;;;;;;;5.53;4.97;;;;;;;;;;5024202;28;20626;-68
2022/07/16 05:30:04;;;;;;;5.37;4.80;;;;;;;;;;5029211;28;20206;-65
2022/07/16 05:32:39;;;;;;;6.37;4.93;;;;;;;;;;5053135;28;20252;-65
2022/07/16 05:35:06;;;;;;;4.60;4.20;;;;;;;;;;5025817;28;20206;-67
2022/07/16 05:37:34;;;;;;;3.87;3.43;;;;;;;;;;5026242;28;20198;-66
2022/07/16 05:40:01;;;;;;;3.90;3.47;;;;;;;;;;5040525;28;20614;-67
2022/07/16 05:42:29;;;;;;;4.18;3.33;;;;;;;;;;5033757;28;20210;-67
2022/07/16 05:44:56;;;;;;;3.47;3.15;;;;;;;;;;5024734;28;20684;-67
2022/07/16 05:47:23;;;;;;;3.83;3.00;;;;;;;;;;5024077;28;20253;-66
2022/07/16 05:49:51;;;;;;;3.42;3.00;;;;;;;;;;5030082;28;20304;-67
2022/07/16 05:52:19;;;;;;;3.65;2.88;;;;;;;;;;5029494;28;20234;-68
2022/07/16 05:54:46;;;;;;;4.60;2.63;;;;;;;;;;5014714;28;20211;-67
2022/07/16 05:57:13;;;;;;;6.68;2.72;;;;;;;;;;5021152;28;20309;-67
2022/07/16 05:59:41;;;;;;;3.08;2.78;;;;;;;;;;5019264;28;20644;-67
2022/07/16 06:02:08;;;;;;;4.88;2.85;;;;;;;;;;5017019;28;20217;-68
2022/07/16 06:04:35;;;;;;;4.53;2.55;;;;;;;;;;5029068;28;20206;-68
2022/07/16 06:07:03;;;;;;;3.58;2.53;;;;;;;;;;5015842;28;20223;-67
2022/07/16 06:09:31;;;;;;;3.92;2.35;;;;;;;;;;5043074;28;20675;-68
2022/07/16 06:11:58;;;;;;;3.92;2.50;;;;;;;;;;5020980;28;20660;-67
2022/07/16 06:14:25;;;;;;;5.07;2.13;;;;;;;;;;5023571;28;20739;-67
2022/07/16 06:16:53;;;;;;;4.47;2.55;;;;;;;;;;5030836;28;20321;-67
2022/07/16 06:19:21;;;;;;;3.10;2.40;;;;;;;;;;5029072;28;20263;-67
2022/07/16 06:21:49;;;;;;;2.88;2.47;;;;;;;;;;5023942;28;20195;-67
2022/07/16 06:24:16;;;;;;;4.30;2.70;;;;;;;;;;5028142;28;20252;-66
2022/07/16 06:26:47;;;;;;;5.83;2.67;;;;;;;;;;5026886;28;20236;-67
2022/07/16 06:29:15;;;;;;;5.05;2.80;;;;;;;;;;5031740;28;20210;-68
2022/07/16 06:31:43;;;;;;;3.28;2.65;;;;;;;;;;5039451;28;20211;-68
2022/07/16 06:34:11;;;;;;;3.00;2.10;;;;;;;;;;5027183;28;20825;-67
2022/07/16 06:36:39;;;;;;;3.40;2.67;;;;;;;;;;5027519;28;20282;-68
2022/07/16 06:39:07;;;;;;;4.60;2.83;;;;;;;;;;5029457;28;20217;-67
2022/07/16 06:41:38;;;;;;;3.42;2.80;;;;;;;;;;5026814;28;20213;-67
2022/07/16 06:44:07;;;;;;;5.28;3.03;;;;;;;;;;5038791;28;20202;-67
2022/07/16 06:46:35;;;;;;;4.40;2.70;;;;;;;;;;5028509;28;20245;-67
2022/07/16 06:49:03;;;;;;;4.20;3.38;;;;;;;;;;5024780;28;20277;-65
2022/07/16 06:51:30;;;;;;;3.80;3.10;;;;;;;;;;5020126;28;20202;-66
2022/07/16 06:53:58;;;;;;;7.07;3.40;;;;;;;;;;5033126;28;20646;-66
2022/07/16 06:56:25;;;;;;;3.45;2.67;;;;;;;;;;5024404;28;20218;-65
2022/07/16 06:58:53;;;;;;;4.75;3.00;;;;;;;;;;5028338;28;20217;-66
2022/07/16 07:01:20;;;;;;;4.22;2.70;;;;;;;;;;5029552;28;20206;-66
2022/07/16 07:03:48;;;;;;;5.50;3.28;;;;;;;;;;5034089;28;20213;-66
2022/07/16 07:06:15;;;;;;;5.43;3.05;;;;;;;;;;5035065;28;20253;-65
2022/07/16 07:08:43;;;;;;;3.38;2.75;;;;;;;;;;5021253;28;20295;-66
2022/07/16 07:11:17;;;;;;;5.38;3.30;;;;;;;;;;5018583;28;20239;-66
2022/07/16 07:13:44;;;;;;;3.25;2.97;;;;;;;;;;5023726;28;20283;-66
2022/07/16 07:16:12;;;;;;;6.10;3.70;;;;;;;;;;5026641;28;20230;-66
2022/07/16 07:18:40;;;;;;;5.80;2.97;;;;;;;;;;5035869;28;20634;-66
2022/07/16 07:21:07;;;;;;;6.00;3.30;;;;;;;;;;5041271;28;20244;-64
2022/07/16 07:23:35;;;;;;;3.03;2.80;;;;;;;;;;5020628;28;20210;-66
2022/07/16 07:26:02;;;;;;;6.43;3.38;;;;;;;;;;5038533;28;20232;-67
2022/07/16 07:28:30;;;;;;;6.82;3.10;;;;;;;;;;5024862;28;20365;-65
2022/07/16 07:30:58;;;;;;;3.67;3.00;;;;;;;;;;5026767;28;20252;-67
2022/07/16 07:33:25;;;;;;;6.03;3.40;;;;;;;;;;5023171;28;20226;-66
2022/07/16 07:35:53;;;;;;;4.38;3.30;;;;;;;;;;5017473;28;20237;-66
2022/07/16 07:38:21;;;;;;;3.55;2.97;;;;;;;;;;5026439;28;20199;-66
2022/07/16 07:40:48;;;;;;;4.32;2.88;;;;;;;;;;5030138;28;20624;-66
2022/07/16 07:43:19;;;;;;;3.88;2.75;;;;;;;;;;5027580;28;20220;-67
2022/07/16 07:45:46;;;;;;;5.70;3.50;;;;;;;;;;5023723;28;20238;-67
2022/07/16 07:48:13;;;;;;;3.63;3.10;;;;;;;;;;5027268;28;20205;-66
2022/07/16 07:50:41;;;;;;;4.63;3.13;;;;;;;;;;5028065;28;20210;-66
2022/07/16 07:53:08;;;;;;;4.05;2.85;;;;;;;;;;5043143;28;20214;-67
2022/07/16 07:55:36;;;;;;;3.42;3.13;;;;;;;;;;5024280;28;20715;-67
2022/07/16 07:58:05;;;;;;;3.88;3.40;;;;;;;;;;5032108;28;20202;-66
2022/07/16 08:00:32;;;;;;;4.10;3.50;;;;;;;;;;5027782;28;20636;-66
2022/07/16 08:03:05;;;;;;;3.78;3.38;;;;;;;;;;5033853;28;20206;-66
2022/07/16 08:05:33;;;;;;;3.95;3.35;;;;;;;;;;5041543;28;20226;-66
2022/07/16 08:08:00;;;;;;;5.10;3.85;;;;;;;;;;5033550;28;20260;-66
2022/07/16 08:10:28;;;;;;;7.80;4.13;;;;;;;;;;5029134;28;20206;-64
2022/07/16 08:12:55;;;;;;;5.68;3.97;;;;;;;;;;5031960;28;20226;-67
2022/07/16 08:15:23;;;;;;;4.28;3.80;;;;;;;;;;5044125;28;20226;-67
2022/07/16 08:17:50;;;;;;;6.28;3.80;;;;;;;;;;5027277;28;20260;-65
2022/07/16 08:20:17;;;;;;;4.78;3.88;;;;;;;;;;5029857;28;20323;-66
2022/07/16 08:22:45;;;;;;;4.68;3.53;;;;;;;;;;5027479;28;20206;-68
2022/07/16 08:28:00;;;;;;;4.72;3.20;;;;;;;;;;5041145;28;20225;-67
2022/07/16 08:30:28;;;;;;;6.88;3.53;;;;;;;;;;5022160;28;20223;-66
2022/07/16 08:32:55;;;;;;;3.72;3.42;;;;;;;;;;5031936;28;20240;-66
2022/07/16 08:35:23;;;;;;;5.05;3.70;;;;;;;;;;5028829;28;20309;-66
2022/07/16 08:37:50;;;;;;;5.55;3.33;;;;;;;;;;5032782;28;20210;-66
2022/07/16 08:40:18;;;;;;;7.35;3.03;;;;;;;;;;5026922;28;20202;-67
2022/07/16 08:42:49;;;;;;;4.45;3.30;;;;;;;;;;5037198;28;20792;-66
2022/07/16 08:45:19;;;;;;;5.90;3.38;;;;;;;;;;5033844;28;20766;-66
2022/07/16 08:47:46;;;;;;;4.28;3.53;;;;;;;;;;5023935;28;20647;-67
2022/07/16 08:50:14;;;;;;;3.35;3.00;;;;;;;;;;5023476;28;20622;-68
2022/07/16 08:52:43;;;;;;;4.15;3.05;;;;;;;;;;5015202;28;20631;-67
2022/07/16 08:55:11;;;;;;;3.00;2.78;;;;;;;;;;5018737;28;20207;-66
2022/07/16 08:57:39;;;;;;;5.15;2.78;;;;;;;;;;5033619;28;20206;-66
2022/07/16 09:00:11;;;;;;;5.50;3.20;;;;;;;;;;5036075;28;20202;-67
2022/07/16 09:02:38;;;;;;;5.13;3.22;;;;;;;;;;5032856;28;20222;-67
2022/07/16 09:05:06;;;;;;;6.10;3.45;;;;;;;;;;5016013;28;20649;-67
2022/07/16 09:07:34;;;;;;;4.95;3.30;;;;;;;;;;5018780;28;20594;-66
2022/07/16 09:10:02;;;;;;;3.92;3.33;;;;;;;;;;5029711;28;20336;-67
2022/07/16 09:12:48;;;;;;;5.10;3.35;;;;;;;;;;5018110;28;20594;-67
2022/07/16 09:15:27;;;;;;;10.23;3.20;;;;;;;;;;5030749;28;20601;-66
2022/07/16 09:18:14;;;;;;;6.15;3.85;;;;;;;;;;5029443;28;20655;-67
2022/07/16 09:20:43;;;;;;;6.10;5.53;;;;;;;;;;5015806;28;20304;-65
2022/07/16 09:23:24;;;;;;;5.13;3.20;;;;;;;;;;5022661;28;20225;-67
2022/07/16 09:26:00;;;;;;;4.97;3.40;;;;;;;;;;5019832;28;20225;-65
2022/07/16 09:28:40;;;;;;;3.38;3.03;;;;;;;;;;5026010;28;20206;-65
2022/07/16 09:31:08;;;;;;;4.15;2.55;;;;;;;;;;5031857;28;20230;-67
2022/07/16 09:33:35;;;;;;;3.35;2.85;;;;;;;;;;5013210;28;20230;-67
2022/07/16 09:36:13;;;;;;;3.33;2.95;;;;;;;;;;5010845;28;20218;-67
2022/07/16 09:38:47;;;;;;;4.03;2.90;;;;;;;;;;5020086;28;20222;-66
2022/07/16 09:41:15;;;;;;;4.30;2.80;;;;;;;;;;5024252;28;20202;-67
2022/07/16 09:43:43;;;;;;;3.70;2.72;;;;;;;;;;5019610;28;20260;-67
2022/07/16 09:46:15;;;;;;;4.85;2.50;;;;;;;;;;5017757;28;20665;-66
2022/07/16 09:48:44;;;;;;;3.20;2.80;;;;;;;;;;5011674;28;20215;-67
2022/07/16 09:51:14;;;;;;;4.50;3.15;;;;;;;;;;5018387;28;20214;-67
2022/07/16 09:53:43;;;;;;;2.90;2.60;;;;;;;;;;5011660;28;20241;-66
2022/07/16 09:56:13;;;;;;;50.90;5.63;;;;;;;;;;5023993;28;20218;-67
2022/07/16 09:58:45;;;;;;;4.65;2.65;;;;;;;;;;5003100;28;20599;-65
2022/07/16 10:01:13;;;;;;;3.80;2.20;;;;;;;;;;5024747;28;20209;-67
2022/07/16 10:03:41;;;;;;;2.92;2.40;;;;;;;;;;5014615;28;20210;-67
2022/07/16 10:06:08;;;;;;;66.75;7.35;;;;;;;;;;5024661;28;20260;-67
2022/07/16 10:08:36;;;;;;;9.75;2.80;;;;;;;;;;5001460;28;20550;-67
2022/07/16 10:11:04;;;;;;;19.38;3.10;;;;;;;;;;5008044;28;20673;-67
2022/07/16 10:13:32;;;;;;;2.72;2.35;;;;;;;;;;5002866;28;21439;-67
2022/07/16 10:16:00;;;;;;;3.03;2.38;;;;;;;;;;5021054;28;20886;-67
2022/07/16 10:18:54;;;;;;;2.42;2.30;;;;;;;;;;5021257;28;21064;-66
2022/07/16 10:21:22;;;;;;;2.85;2.50;;;;;;;;;;4993183;28;20211;-66
2022/07/16 10:23:51;;;;;;;4.50;2.80;;;;;;;;;;5006703;28;20222;-65
2022/07/16 10:26:19;;;;;;;4.03;2.88;;;;;;;;;;5004342;28;20226;-67
2022/07/16 10:28:48;;;;;;;4.60;2.70;;;;;;;;;;5002238;28;20214;-67
2022/07/16 10:31:31;;;;;;;2.60;2.40;;;;;;;;;;5013349;28;20221;-67
2022/07/16 10:34:14;;;;;;;3.58;2.42;;;;;;;;;;4995436;28;20229;-66
2022/07/16 10:36:50;;;;;;;4.43;3.08;;;;;;;;;;4998987;28;20226;-67
2022/07/16 10:39:17;;;;;;;5.00;2.65;;;;;;;;;;5010349;28;20621;-67
2022/07/16 10:41:49;;;;;;;4.45;2.22;;;;;;;;;;5022527;28;20214;-67
2022/07/16 10:44:18;;;;;;;3.75;2.75;;;;;;;;;;5013037;28;20206;-68
2022/07/16 10:46:52;;;;;;;4.40;2.28;;;;;;;;;;5031430;28;20233;-67
2022/07/16 10:49:20;;;;;;;2.90;2.30;;;;;;;;;;5036127;28;20597;-68
2022/07/16 10:51:57;;;;;;;2.60;2.40;;;;;;;;;;5041673;28;20214;-67
2022/07/16 10:54:37;;;;;;;8.30;6.20;;;;;;;;;;5018270;28;20226;-67
2022/07/16 10:57:08;;;;;;;3.35;2.38;;;;;;;;;;5013323;28;20313;-67
2022/07/16 10:59:46;;;;;;;3.20;2.60;;;;;;;;;;5011552;28;20578;-68
2022/07/16 11:02:17;;;;;;;2.38;2.17;;;;;;;;;;5020194;28;20193;-66
2022/07/16 11:04:46;;;;;;;3.83;2.42;;;;;;;;;;5034580;28;20215;-65
2022/07/16 11:07:21;;;;;;;4.53;2.60;;;;;;;;;;5039710;28;20253;-67
2022/07/16 11:09:54;;;;;;;2.35;2.15;;;;;;;;;;5013538;28;20214;-66
2022/07/16 11:12:24;;;;;;;2.30;2.20;;;;;;;;;;5024227;28;20218;-67
2022/07/16 11:14:55;;;;;;;4.43;2.65;;;;;;;;;;5013980;28;20722;-65
2022/07/16 11:17:24;;;;;;;4.95;2.53;;;;;;;;;;5005090;28;20234;-65
2022/07/16 11:19:59;;;;;;;3.40;2.35;;;;;;;;;;5034682;28;20234;-66
2022/07/16 11:22:28;;;;;;;3.40;2.25;;;;;;;;;;5011854;28;20210;-65
2022/07/16 11:25:00;;;;;;;4.47;2.85;;;;;;;;;;5011549;28;20211;-66
2022/07/16 11:27:35;;;;;;;2.50;2.30;;;;;;;;;;5033725;28;20229;-66
2022/07/16 11:30:06;;;;;;;3.67;2.33;;;;;;;;;;5007182;28;20214;-64
2022/07/16 11:32:44;;;;;;;2.63;2.40;;;;;;;;;;5007306;28;20222;-65
2022/07/16 11:35:15;;;;;;;2.33;2.13;;;;;;;;;;5014547;28;20226;-67
2022/07/16 11:37:56;;;;;;;3.70;2.20;;;;;;;;;;5013882;28;20206;-66
2022/07/16 11:40:39;;;;;;;4.30;2.40;;;;;;;;;;5028200;28;20692;-67
2022/07/16 11:43:06;;;;;;;2.33;2.13;;;;;;;;;;5011030;28;20203;-66
2022/07/16 11:45:43;;;;;;;3.17;2.25;;;;;;;;;;5004320;28;20312;-66
2022/07/16 11:48:12;;;;;;;4.07;2.40;;;;;;;;;;5029355;28;20257;-66
2022/07/16 11:50:41;;;;;;;2.97;2.20;;;;;;;;;;5015359;28;20242;-64
2022/07/16 11:53:09;;;;;;;3.33;2.42;;;;;;;;;;5021695;28;20664;-65
2022/07/16 11:55:41;;;;;;;6.20;2.58;;;;;;;;;;5033563;28;20226;-66
2022/07/16 11:58:08;;;;;;;2.90;2.42;;;;;;;;;;5030180;28;20292;-66
2022/07/16 12:00:46;;;;;;;3.40;2.67;;;;;;;;;;5020453;28;20618;-65
2022/07/16 12:03:13;;;;;;;2.97;2.33;;;;;;;;;;5021419;28;20213;-67
2022/07/16 12:05:41;;;;;;;3.13;2.50;;;;;;;;;;5019863;28;20231;-67
2022/07/16 12:08:10;;;;;;;5.70;4.68;;;;;;;;;;5024009;28;20205;-65
2022/07/16 12:10:59;;;;;;;3.15;2.30;;;;;;;;;;5002727;28;20225;-67
2022/07/16 12:13:27;;;;;;;4.47;2.28;;;;;;;;;;5012248;28;20385;-68
2022/07/16 12:15:57;;;;;;;3.90;2.60;;;;;;;;;;5008709;28;20253;-68
2022/07/16 12:18:26;;;;;;;3.17;2.70;;;;;;;;;;5017415;28;20215;-68
2022/07/16 12:21:15;;;;;;;2.47;2.30;;;;;;;;;;5005104;28;20243;-68
2022/07/16 12:23:46;;;;;;;4.53;2.72;;;;;;;;;;5028533;28;20210;-67
2022/07/16 12:26:15;;;;;;;3.53;2.50;;;;;;;;;;5012878;28;20234;-67
2022/07/16 12:28:51;;;;;;;3.20;2.60;;;;;;;;;;5005107;28;20242;-66
2022/07/16 12:31:19;;;;;;;5.30;2.53;;;;;;;;;;5010301;28;20261;-66
2022/07/16 12:33:51;;;;;;;5.72;4.97;;;;;;;;;;5017917;28;20244;-66
2022/07/16 12:36:28;;;;;;;2.60;2.40;;;;;;;;;;5026415;28;20229;-65
2022/07/16 12:39:02;;;;;;;3.80;2.30;;;;;;;;;;5007351;28;20276;-67
2022/07/16 12:41:29;;;;;;;5.75;2.25;;;;;;;;;;5011538;28;20727;-65
2022/07/16 12:43:58;;;;;;;3.65;2.47;;;;;;;;;;5014895;28;20198;-65
2022/07/16 12:46:27;;;;;;;3.90;2.40;;;;;;;;;;5018259;28;20232;-66
2022/07/16 12:49:15;;;;;;;2.78;2.45;;;;;;;;;;5039212;28;20206;-65
2022/07/16 12:51:43;;;;;;;3.22;2.42;;;;;;;;;;5016433;28;20207;-65
2022/07/16 12:54:12;;;;;;;4.75;2.42;;;;;;;;;;5019423;28;20226;-66
2022/07/16 12:59:26;;;;;;;3.10;2.47;;;;;;;;;;5039058;28;20206;-65
2022/07/16 13:01:54;;;;;;;3.58;2.25;;;;;;;;;;5015248;28;20221;-66
2022/07/16 13:04:22;;;;;;;3.30;2.22;;;;;;;;;;5019389;28;20219;-66
2022/07/16 13:06:51;;;;;;;3.50;2.10;;;;;;;;;;5016447;28;20611;-64
2022/07/16 13:09:19;;;;;;;3.90;2.13;;;;;;;;;;5026155;28;20206;-66
2022/07/16 13:11:46;;;;;;;2.15;1.95;;;;;;;;;;5026526;28;20210;-66
2022/07/16 13:14:16;;;;;;;3.13;2.83;;;;;;;;;;5040835;28;20712;-67
2022/07/16 13:16:44;;;;;;;2.63;2.10;;;;;;;;;;5019473;28;20218;-66
2022/07/16 13:19:19;;;;;;;1.90;1.80;;;;;;;;;;5030981;28;20207;-66
2022/07/16 13:21:46;;;;;;;2.85;2.10;;;;;;;;;;5020617;28;20210;-65
2022/07/16 13:24:14;;;;;;;3.83;1.90;;;;;;;;;;5009855;28;20214;-66
2022/07/16 13:26:41;;;;;;;3.33;1.67;;;;;;;;;;5016575;28;20296;-65
2022/07/16 13:29:28;;;;;;;2.50;2.00;;;;;;;;;;5015844;28;20299;-66
2022/07/16 13:31:55;;;;;;;3.08;1.63;;;;;;;;;;5014280;28;20210;-66
2022/07/16 13:34:23;;;;;;;5.35;1.80;;;;;;;;;;5024796;28;20573;-65
2022/07/16 13:36:51;;;;;;;2.83;1.90;;;;;;;;;;5009121;28;20303;-66
2022/07/16 13:39:18;;;;;;;2.47;2.00;;;;;;;;;;5014190;28;20676;-66
2022/07/16 13:41:45;;;;;;;5.53;1.85;;;;;;;;;;5015069;28;20214;-67
2022/07/16 13:44:13;;;;;;;4.82;2.75;;;;;;;;;;5035316;28;20214;-66
2022/07/16 13:46:41;;;;;;;3.50;2.60;;;;;;;;;;5015803;28;20614;-66
2022/07/16 13:49:08;;;;;;;2.53;1.80;;;;;;;;;;5018378;28;20684;-66
2022/07/16 13:51:36;;;;;;;2.80;1.52;;;;;;;;;;5009705;28;20214;-65
2022/07/16 13:54:12;;;;;;;4.40;1.98;;;;;;;;;;5018043;28;20709;-66
2022/07/16 13:56:40;;;;;;;2.00;1.45;;;;;;;;;;5016662;28;20233;-67
2022/07/16 13:59:07;;;;;;;2.40;1.75;;;;;;;;;;5012711;28;20206;-67
2022/07/16 14:01:35;;;;;;;1.95;1.67;;;;;;;;;;5021414;28;20743;-67
2022/07/16 14:04:05;;;;;;;2.35;1.90;;;;;;;;;;5021708;28;20470;-66
2022/07/16 14:06:33;;;;;;;3.22;1.63;;;;;;;;;;5014627;28;20222;-66
2022/07/16 14:09:01;;;;;;;2.85;1.60;;;;;;;;;;5024293;28;20289;-67
2022/07/16 14:11:28;;;;;;;2.72;1.75;;;;;;;;;;5017247;28;20202;-68
2022/07/16 14:13:56;;;;;;;3.33;1.50;;;;;;;;;;5020968;28;21928;-67
2022/07/16 14:16:24;;;;;;;2.90;1.50;;;;;;;;;;5026060;28;20235;-66
2022/07/16 14:18:51;;;;;;;1.50;1.40;;;;;;;;;;5000150;28;20234;-67
2022/07/16 14:21:19;;;;;;;1.63;1.40;;;;;;;;;;4996179;28;20209;-66
2022/07/16 14:23:47;;;;;;;2.40;1.48;;;;;;;;;;5011055;28;20285;-67
2022/07/16 14:26:15;;;;;;;3.55;1.40;;;;;;;;;;5008164;28;20238;-66
2022/07/16 14:28:42;;;;;;;2.95;1.65;;;;;;;;;;5013291;28;20206;-66
2022/07/16 14:31:10;;;;;;;1.58;1.33;;;;;;;;;;5022830;28;20210;-67
2022/07/16 14:33:38;;;;;;;1.65;1.35;;;;;;;;;;5023703;28;20229;-66
2022/07/16 14:36:06;;;;;;;3.53;1.60;;;;;;;;;;5011964;28;20284;-67
2022/07/16 14:38:34;;;;;;;2.35;1.15;;;;;;;;;;5031277;28;20690;-66
2022/07/16 14:41:01;;;;;;;2.25;1.30;;;;;;;;;;5022076;28;20225;-66
2022/07/16 14:43:30;;;;;;;1.30;1.20;;;;;;;;;;5012702;28;20202;-65
2022/07/16 14:45:57;;;;;;;2.17;1.42;;;;;;;;;;5018831;28;20235;-66
2022/07/16 14:48:26;;;;;;;1.90;1.40;;;;;;;;;;5039883;28;20207;-66
2022/07/16 14:50:54;;;;;;;1.88;1.55;;;;;;;;;;5022837;28;20210;-66
2022/07/16 14:53:22;;;;;;;1.52;1.30;;;;;;;;;;5012520;28;20211;-66
2022/07/16 14:55:49;;;;;;;3.97;1.50;;;;;;;;;;5019631;28;20455;-65
2022/07/16 14:58:17;;;;;;;1.70;1.30;;;;;;;;;;5018664;28;20198;-65
2022/07/16 15:00:45;;;;;;;1.60;1.45;;;;;;;;;;5014167;28;20199;-66